West Alton, Missouri
Current Conditions -  °F | °C
As of 5:50 PM on Sunday 25 Jan 2015 (Local Time) from KALN Reporting Station
Overcast Overcast  
Wind Chill: 25°   Ceiling: 700
Heat Index: 36°   Visibility: 10mi
Dew Point: 34°   Wind: 21mph
Humidity: 93%   Direction: 360°N
Pressure: 29.83"   Gusts: NA
Location:  38.87°N, 90.22°W
Report Text: KALN 252350Z 36018KT 10SM OVC007 02/01 A2983
Loading
Personal Weather Stations






























Interactive Weather Map New forecast layout! Learn more

10-Day Weather Forecast

Advertisements
Track Severe Weather on mobile